createdAt,value
2022-10-19T00:00:46.109Z,7.23
2022-10-19T00:03:12.720Z,7.19
2022-10-19T00:05:39.388Z,7.18
2022-10-19T00:08:06.113Z,7.15
2022-10-19T00:10:32.649Z,7.12
2022-10-19T00:13:00.981Z,7.10
2022-10-19T00:15:27.602Z,7.08
2022-10-19T00:17:54.140Z,7.11
2022-10-19T00:20:20.643Z,7.11
2022-10-19T00:22:49.762Z,7.14
2022-10-19T00:25:16.602Z,7.15
2022-10-19T00:27:43.102Z,7.17
2022-10-19T00:30:11.435Z,7.19
2022-10-19T00:32:37.940Z,7.19
2022-10-19T00:35:05.166Z,7.24
2022-10-19T00:37:31.688Z,7.21
2022-10-19T00:39:58.229Z,7.23
2022-10-19T00:42:24.766Z,7.26
2022-10-19T00:45:01.225Z,7.28
2022-10-19T00:47:29.477Z,7.32
2022-10-19T00:49:57.693Z,7.34
2022-10-19T00:52:24.905Z,7.34
2022-10-19T00:54:53.701Z,7.35
2022-10-19T00:57:21.400Z,7.35
2022-10-19T00:59:48.081Z,7.32
2022-10-19T01:02:14.727Z,7.32
2022-10-19T01:04:48.552Z,7.26
2022-10-19T01:07:15.535Z,7.27
2022-10-19T01:09:42.080Z,7.30
2022-10-19T01:12:20.022Z,7.30
2022-10-19T01:14:59.391Z,7.25
2022-10-19T01:17:41.435Z,7.26
2022-10-19T01:20:32.927Z,7.24
2022-10-19T01:23:29.539Z,7.24
2022-10-19T01:26:07.083Z,7.29
2022-10-19T01:28:46.073Z,7.28
2022-10-19T01:31:21.126Z,7.35
2022-10-19T01:33:54.960Z,7.35
2022-10-19T01:36:26.053Z,7.30
2022-10-19T01:38:59.702Z,7.31
2022-10-19T01:41:33.051Z,7.28
2022-10-19T01:44:07.321Z,7.32
2022-10-19T01:46:38.766Z,7.29
2022-10-19T01:49:11.259Z,7.29
2022-10-19T01:51:42.324Z,7.30
2022-10-19T01:54:13.340Z,7.23
2022-10-19T01:56:42.340Z,7.23
2022-10-19T01:59:11.574Z,7.19
2022-10-19T02:01:43.464Z,7.21
2022-10-19T02:04:11.163Z,7.23
2022-10-19T02:06:39.328Z,7.21
2022-10-19T02:09:05.967Z,7.21
2022-10-19T02:11:33.842Z,7.17
2022-10-19T02:14:09.472Z,7.05
2022-10-19T02:16:41.136Z,7.01
2022-10-19T02:19:09.772Z,6.93
2022-10-19T02:21:36.531Z,6.84
2022-10-19T02:24:03.285Z,6.78
2022-10-19T02:26:29.904Z,6.73
2022-10-19T02:28:57.059Z,6.74
2022-10-19T02:31:24.515Z,6.68
2022-10-19T02:33:53.250Z,6.58
2022-10-19T02:36:20.245Z,6.65
2022-10-19T02:38:46.904Z,6.59
2022-10-19T02:41:17.967Z,6.57
2022-10-19T02:43:49.244Z,6.57
2022-10-19T02:46:22.959Z,6.56
2022-10-19T02:48:53.084Z,6.54
2022-10-19T02:51:31.168Z,6.48
2022-10-19T02:53:59.937Z,6.50
2022-10-19T02:56:29.209Z,6.52
2022-10-19T02:58:55.737Z,6.49
2022-10-19T03:01:22.299Z,6.47
2022-10-19T03:03:48.831Z,6.43
2022-10-19T03:06:16.782Z,6.41
2022-10-19T03:08:43.563Z,6.39
2022-10-19T03:11:10.659Z,6.39
2022-10-19T03:13:37.313Z,6.38
2022-10-19T03:16:08.315Z,6.38
2022-10-19T03:18:34.872Z,6.39
2022-10-19T03:21:02.772Z,6.46
2022-10-19T03:23:30.958Z,6.44
2022-10-19T03:25:57.508Z,6.44
2022-10-19T03:28:24.029Z,6.49
2022-10-19T03:30:50.534Z,6.48
2022-10-19T03:33:17.105Z,6.45
2022-10-19T03:35:43.633Z,6.39
2022-10-19T03:38:10.174Z,6.37
2022-10-19T03:40:39.681Z,6.39
2022-10-19T03:43:06.357Z,6.42
2022-10-19T03:45:33.177Z,6.41
2022-10-19T03:47:59.689Z,6.44
2022-10-19T03:50:26.196Z,6.38
2022-10-19T03:52:52.747Z,6.39
2022-10-19T03:55:19.449Z,6.34
2022-10-19T03:57:47.309Z,6.29
2022-10-19T04:00:14.671Z,6.27
2022-10-19T04:02:41.434Z,6.32
2022-10-19T04:05:08.396Z,6.31
2022-10-19T04:07:35.154Z,6.34
2022-10-19T04:10:02.102Z,6.32
2022-10-19T04:12:28.624Z,6.34
2022-10-19T04:14:57.811Z,6.33
2022-10-19T04:17:25.451Z,6.35
2022-10-19T04:19:51.994Z,6.32
2022-10-19T04:22:18.525Z,6.29
2022-10-19T04:24:45.051Z,6.33
2022-10-19T04:27:11.588Z,6.37
2022-10-19T04:29:38.243Z,6.43
2022-10-19T04:32:06.501Z,6.43
2022-10-19T04:34:35.253Z,6.42
2022-10-19T04:37:04.287Z,6.43
2022-10-19T04:39:30.780Z,6.43
2022-10-19T04:41:57.393Z,6.43
2022-10-19T04:46:55.427Z,6.43
2022-10-19T04:49:23.289Z,6.43
2022-10-19T04:51:49.793Z,6.46
2022-10-19T04:54:16.300Z,6.48
2022-10-19T04:56:42.913Z,6.49
2022-10-19T04:59:10.199Z,6.50
2022-10-19T05:01:37.220Z,6.51
2022-10-19T05:04:04.022Z,6.46
2022-10-19T05:06:32.064Z,6.48
2022-10-19T05:08:58.915Z,6.49
2022-10-19T05:11:26.181Z,6.46
2022-10-19T05:13:52.807Z,6.45
2022-10-19T05:16:21.137Z,6.43
2022-10-19T05:18:48.611Z,6.39
2022-10-19T05:21:15.918Z,6.42
2022-10-19T05:23:44.173Z,6.41
2022-10-19T05:26:12.479Z,6.38
2022-10-19T05:28:39.389Z,6.39
2022-10-19T05:31:08.503Z,6.38
2022-10-19T05:33:35.487Z,6.41
2022-10-19T05:36:11.061Z,6.45
2022-10-19T05:38:37.678Z,6.49
2022-10-19T05:41:06.212Z,6.47
2022-10-19T05:43:32.731Z,6.47
2022-10-19T05:46:03.787Z,6.45
2022-10-19T05:48:30.528Z,6.45
2022-10-19T05:50:57.058Z,6.44
2022-10-19T05:53:23.762Z,6.45
2022-10-19T05:55:50.256Z,6.42
2022-10-19T05:58:18.148Z,6.47
2022-10-19T06:00:51.228Z,6.47
2022-10-19T06:03:17.746Z,6.49
2022-10-19T06:05:44.273Z,6.48
2022-10-19T06:08:10.795Z,6.48
2022-10-19T06:10:37.413Z,6.48
2022-10-19T06:13:03.955Z,6.51
2022-10-19T06:15:34.621Z,6.49
2022-10-19T06:18:01.131Z,6.49
2022-10-19T06:20:27.728Z,6.51
2022-10-19T06:22:54.295Z,6.58
2022-10-19T06:25:20.922Z,6.59
2022-10-19T06:27:47.716Z,6.63
2022-10-19T06:30:14.318Z,6.63
2022-10-19T06:32:42.288Z,6.65
2022-10-19T06:35:08.943Z,6.66
2022-10-19T06:37:35.747Z,6.66
2022-10-19T06:40:06.188Z,6.67
2022-10-19T06:42:34.180Z,6.65
2022-10-19T06:45:00.774Z,6.68
2022-10-19T06:47:27.285Z,6.69
2022-10-19T06:49:55.121Z,6.72
2022-10-19T06:52:21.649Z,6.74
2022-10-19T06:54:48.223Z,6.76
2022-10-19T06:57:14.752Z,6.78
2022-10-19T06:59:41.256Z,6.78
2022-10-19T07:02:07.906Z,6.80
2022-10-19T07:04:34.451Z,6.84
2022-10-19T07:07:02.564Z,6.86
2022-10-19T07:09:29.230Z,6.83
2022-10-19T07:11:55.871Z,6.87
2022-10-19T07:14:22.543Z,6.95
2022-10-19T07:16:49.635Z,6.96
2022-10-19T07:19:16.298Z,7.02
2022-10-19T07:21:42.837Z,7.09
2022-10-19T07:24:11.200Z,7.06
2022-10-19T07:26:38.268Z,7.17
2022-10-19T07:29:04.941Z,7.24
2022-10-19T07:31:32.723Z,7.31
2022-10-19T07:34:01.246Z,7.37
2022-10-19T07:36:29.148Z,7.30
2022-10-19T07:38:55.725Z,7.32
2022-10-19T07:41:25.188Z,7.42
2022-10-19T07:43:52.209Z,7.53
2022-10-19T07:46:20.684Z,7.65
2022-10-19T07:48:47.407Z,7.74
2022-10-19T07:51:16.194Z,7.85
2022-10-19T07:53:43.350Z,8.06
2022-10-19T07:56:11.458Z,8.35
2022-10-19T07:58:40.388Z,8.43
2022-10-19T08:01:08.928Z,8.58
2022-10-19T08:06:23.168Z,8.56
2022-10-19T08:08:51.451Z,8.53
2022-10-19T08:11:20.687Z,8.56
2022-10-19T08:13:49.149Z,8.60
2022-10-19T08:16:25.047Z,8.61
2022-10-19T08:18:52.794Z,8.57
2022-10-19T08:21:19.476Z,8.48
2022-10-19T08:23:46.120Z,8.48
2022-10-19T08:26:12.726Z,8.57
2022-10-19T08:28:39.498Z,8.65
2022-10-19T08:31:12.353Z,8.79
2022-10-19T08:33:39.528Z,8.91
2022-10-19T08:36:06.770Z,8.99
2022-10-19T08:38:35.725Z,9.11
2022-10-19T08:41:11.503Z,9.27
2022-10-19T08:43:48.274Z,9.36
2022-10-19T08:46:24.239Z,9.43
2022-10-19T08:48:52.075Z,9.62
2022-10-19T08:51:18.634Z,9.81
2022-10-19T08:53:53.311Z,10.04
2022-10-19T08:56:49.922Z,10.33
2022-10-19T08:59:30.336Z,10.37
2022-10-19T09:02:01.491Z,10.61
2022-10-19T09:04:32.915Z,10.82
2022-10-19T09:07:17.772Z,11.07
2022-10-19T09:09:48.781Z,11.22
2022-10-19T09:12:19.771Z,11.49
2022-10-19T09:14:54.130Z,11.81
2022-10-19T09:17:22.191Z,11.97
2022-10-19T09:19:48.732Z,12.18
2022-10-19T09:22:20.034Z,12.30
2022-10-19T09:24:50.499Z,12.55
2022-10-19T09:27:21.138Z,12.49
2022-10-19T09:29:53.285Z,12.65
2022-10-19T09:32:25.492Z,12.87
2022-10-19T09:34:54.914Z,12.94
2022-10-19T09:37:26.359Z,13.08
2022-10-19T09:39:55.050Z,13.16
2022-10-19T09:42:26.147Z,13.38
2022-10-19T09:44:54.899Z,13.71
2022-10-19T09:47:33.506Z,13.98
2022-10-19T09:50:17.452Z,14.27
2022-10-19T09:52:45.343Z,14.57
2022-10-19T09:55:26.389Z,14.65
2022-10-19T09:58:00.436Z,15.00
2022-10-19T10:00:33.918Z,15.08
2022-10-19T10:03:02.091Z,15.36
2022-10-19T10:05:34.091Z,15.48
2022-10-19T10:08:01.106Z,15.84
2022-10-19T10:10:30.647Z,15.59
2022-10-19T10:12:58.330Z,15.95
2022-10-19T10:15:27.661Z,15.82
2022-10-19T10:17:56.780Z,15.79
2022-10-19T10:20:27.114Z,15.62
2022-10-19T10:22:56.217Z,15.76
2022-10-19T10:25:26.693Z,15.54
2022-10-19T10:27:59.393Z,15.63
2022-10-19T10:30:29.060Z,15.67
2022-10-19T10:33:00.353Z,15.59
2022-10-19T10:35:36.618Z,15.84
2022-10-19T10:38:09.740Z,15.64
2022-10-19T10:40:37.931Z,15.84
2022-10-19T10:43:07.855Z,15.62
2022-10-19T10:45:39.638Z,16.25
2022-10-19T10:48:17.108Z,16.64
2022-10-19T10:50:45.289Z,16.66
2022-10-19T10:53:37.256Z,16.63
2022-10-19T10:56:05.781Z,16.77
2022-10-19T10:58:38.842Z,16.97
2022-10-19T11:01:13.500Z,16.73
2022-10-19T11:03:49.642Z,16.96
2022-10-19T11:06:21.565Z,17.24
2022-10-19T11:08:53.747Z,17.14
2022-10-19T11:11:24.949Z,17.27
2022-10-19T11:14:00.071Z,17.32
2022-10-19T11:16:31.318Z,17.31
2022-10-19T11:19:07.163Z,17.49
2022-10-19T11:21:41.711Z,17.36
2022-10-19T11:24:17.445Z,17.38
2022-10-19T11:26:58.976Z,17.31
2022-10-19T11:29:38.063Z,17.12
2022-10-19T11:32:14.676Z,17.06
2022-10-19T11:34:58.255Z,17.69
2022-10-19T11:37:30.602Z,17.86
2022-10-19T11:40:11.594Z,18.01
2022-10-19T11:42:52.147Z,18.05
2022-10-19T11:45:28.363Z,18.11
2022-10-19T11:48:17.721Z,18.33
2022-10-19T11:50:54.286Z,18.25
2022-10-19T11:53:34.939Z,18.06
2022-10-19T11:56:08.165Z,18.20
2022-10-19T11:58:46.927Z,18.39
2022-10-19T12:01:28.390Z,18.33
2022-10-19T12:04:23.463Z,18.17
2022-10-19T12:07:01.575Z,18.20
2022-10-19T12:09:43.077Z,18.23
2022-10-19T12:12:26.897Z,17.80
2022-10-19T12:15:05.218Z,17.92
2022-10-19T12:17:36.786Z,18.21
2022-10-19T12:20:08.182Z,18.41
2022-10-19T12:22:36.810Z,18.21
2022-10-19T12:25:06.076Z,18.07
2022-10-19T12:27:34.954Z,18.18
2022-10-19T12:30:07.513Z,17.76
2022-10-19T12:32:50.664Z,17.78
2022-10-19T12:35:35.032Z,18.07
2022-10-19T12:38:06.772Z,18.24
2022-10-19T12:40:38.675Z,18.13
2022-10-19T12:43:13.763Z,18.23
2022-10-19T12:45:43.734Z,18.21
2022-10-19T12:48:22.510Z,18.31
2022-10-19T12:50:59.974Z,18.27
2022-10-19T12:53:29.228Z,18.11
2022-10-19T12:56:02.268Z,18.36
2022-10-19T12:58:34.534Z,18.50
2022-10-19T13:01:04.473Z,18.11
2022-10-19T13:03:33.719Z,18.05
2022-10-19T13:06:03.017Z,18.27
2022-10-19T13:08:32.615Z,18.29
2022-10-19T13:11:09.661Z,18.39
2022-10-19T13:14:00.187Z,18.44
2022-10-19T13:16:55.192Z,18.43
2022-10-19T13:19:22.694Z,18.61
2022-10-19T13:22:05.842Z,18.66
2022-10-19T13:24:35.341Z,18.81
2022-10-19T13:27:27.863Z,18.86
2022-10-19T13:29:54.829Z,18.90
2022-10-19T13:32:39.260Z,18.95
2022-10-19T13:35:26.750Z,18.84
2022-10-19T13:38:24.544Z,18.89
2022-10-19T13:41:04.251Z,18.97
2022-10-19T13:43:35.088Z,19.39
2022-10-19T13:46:21.724Z,19.46
2022-10-19T13:49:22.937Z,19.68
2022-10-19T13:52:05.177Z,19.90
2022-10-19T13:54:47.191Z,19.79
2022-10-19T13:57:20.633Z,19.74
2022-10-19T14:00:11.427Z,19.69
2022-10-19T14:03:00.945Z,19.68
2022-10-19T14:05:54.394Z,19.58
2022-10-19T14:08:41.721Z,19.45
2022-10-19T14:11:14.273Z,19.48
2022-10-19T14:13:40.880Z,19.40
2022-10-19T14:16:18.779Z,19.09
2022-10-19T14:18:53.846Z,19.03
2022-10-19T14:21:30.139Z,19.02
2022-10-19T14:23:56.849Z,18.78
2022-10-19T14:26:26.460Z,18.63
2022-10-19T14:28:54.024Z,18.49
2022-10-19T14:31:24.998Z,18.63
2022-10-19T14:33:53.597Z,18.58
2022-10-19T14:36:22.520Z,18.49
2022-10-19T14:38:52.948Z,18.54
2022-10-19T14:41:21.750Z,18.31
2022-10-19T14:43:48.322Z,18.06
2022-10-19T14:46:16.000Z,18.05
2022-10-19T14:48:46.261Z,17.76
2022-10-19T14:51:28.489Z,17.27
2022-10-19T14:53:59.220Z,17.19
2022-10-19T14:56:32.934Z,16.92
2022-10-19T14:59:02.789Z,16.67
2022-10-19T15:01:30.060Z,16.50
2022-10-19T15:03:58.162Z,16.27
2022-10-19T15:06:28.565Z,16.05
2022-10-19T15:08:57.804Z,15.83
2022-10-19T15:11:28.432Z,15.52
2022-10-19T15:13:58.784Z,15.28
2022-10-19T15:16:31.231Z,15.03
2022-10-19T15:19:02.796Z,14.79
2022-10-19T15:21:31.531Z,14.56
2022-10-19T15:24:08.624Z,14.34
2022-10-19T15:26:35.151Z,14.11
2022-10-19T15:29:09.388Z,13.94
2022-10-19T15:31:36.051Z,13.73
2022-10-19T15:34:04.699Z,13.66
2022-10-19T15:36:32.244Z,13.51
2022-10-19T15:39:18.461Z,13.31
2022-10-19T15:41:50.902Z,13.06
2022-10-19T15:44:32.362Z,12.90
2022-10-19T15:47:20.923Z,12.86
2022-10-19T15:49:59.986Z,12.66
2022-10-19T15:52:27.983Z,12.54
2022-10-19T15:54:56.861Z,12.39
2022-10-19T15:57:32.185Z,12.23
2022-10-19T16:00:00.606Z,12.14
2022-10-19T16:02:27.124Z,11.98
2022-10-19T16:04:54.444Z,11.73
2022-10-19T16:07:26.151Z,11.54
2022-10-19T16:09:53.013Z,11.50
2022-10-19T16:12:19.576Z,11.38
2022-10-19T16:14:46.225Z,11.23
2022-10-19T16:17:13.619Z,11.13
2022-10-19T16:19:40.445Z,10.93
2022-10-19T16:22:07.060Z,10.85
2022-10-19T16:24:35.120Z,10.74
2022-10-19T16:27:01.611Z,10.57
2022-10-19T16:29:29.072Z,10.46
2022-10-19T16:31:55.720Z,10.38
2022-10-19T16:34:22.219Z,10.24
2022-10-19T16:36:48.822Z,10.14
2022-10-19T16:39:15.332Z,10.03
2022-10-19T16:41:44.081Z,9.91
2022-10-19T16:44:11.464Z,9.78
2022-10-19T16:46:38.673Z,9.73
2022-10-19T16:49:05.190Z,9.66
2022-10-19T16:51:35.261Z,9.57
2022-10-19T16:54:02.578Z,9.48
2022-10-19T16:56:30.126Z,9.33
2022-10-19T16:58:59.945Z,9.19
2022-10-19T17:01:27.551Z,9.09
2022-10-19T17:03:54.861Z,8.99
2022-10-19T17:06:22.317Z,8.90
2022-10-19T17:11:37.176Z,8.78
2022-10-19T17:14:06.854Z,8.73
2022-10-19T17:16:35.647Z,8.69
2022-10-19T17:19:03.475Z,8.64
2022-10-19T17:21:32.290Z,8.57
2022-10-19T17:24:00.534Z,8.53
2022-10-19T17:26:28.103Z,8.50
2022-10-19T17:28:55.544Z,8.45
2022-10-19T17:31:23.744Z,8.41
2022-10-19T17:33:50.715Z,8.34
2022-10-19T17:36:19.887Z,8.31
2022-10-19T17:38:46.754Z,8.24
2022-10-19T17:41:14.934Z,8.24
2022-10-19T17:43:43.132Z,8.19
2022-10-19T17:46:11.700Z,8.07
2022-10-19T17:48:40.931Z,8.06
2022-10-19T17:51:10.784Z,7.99
2022-10-19T17:53:37.439Z,7.96
2022-10-19T17:56:05.944Z,7.91
2022-10-19T17:58:36.422Z,7.86
2022-10-19T18:01:07.112Z,7.86
2022-10-19T18:03:34.403Z,7.82
2022-10-19T18:06:08.164Z,7.77
2022-10-19T18:08:39.056Z,7.75
2022-10-19T18:11:07.647Z,7.69
2022-10-19T18:13:35.066Z,7.63
2022-10-19T18:16:03.009Z,7.59
2022-10-19T18:18:31.521Z,7.55
2022-10-19T18:20:58.442Z,7.54
2022-10-19T18:23:26.337Z,7.48
2022-10-19T18:25:54.213Z,7.44
2022-10-19T18:28:21.484Z,7.41
2022-10-19T18:30:48.028Z,7.40
2022-10-19T18:33:14.524Z,7.36
2022-10-19T18:35:41.339Z,7.31
2022-10-19T18:38:07.990Z,7.30
2022-10-19T18:40:37.119Z,7.28
2022-10-19T18:43:04.220Z,7.25
2022-10-19T18:45:31.192Z,7.19
2022-10-19T18:47:57.845Z,7.14
2022-10-19T18:50:24.496Z,7.09
2022-10-19T18:52:51.231Z,7.06
2022-10-19T18:55:18.089Z,7.04
2022-10-19T18:57:45.936Z,7.00
2022-10-19T19:00:13.610Z,6.99
2022-10-19T19:02:46.697Z,6.97
2022-10-19T19:05:13.749Z,6.95
2022-10-19T19:07:40.251Z,6.94
2022-10-19T19:10:07.575Z,6.88
2022-10-19T19:12:34.374Z,6.83
2022-10-19T19:15:02.691Z,6.81
2022-10-19T19:17:29.206Z,6.79
2022-10-19T19:19:55.806Z,6.77
2022-10-19T19:22:22.383Z,6.75
2022-10-19T19:24:49.670Z,6.73
2022-10-19T19:27:16.361Z,6.70
2022-10-19T19:29:43.060Z,6.68
2022-10-19T19:32:10.898Z,6.66
2022-10-19T19:34:37.549Z,6.63
2022-10-19T19:37:07.397Z,6.58
2022-10-19T19:39:37.839Z,6.56
2022-10-19T19:42:04.418Z,6.53
2022-10-19T19:44:31.419Z,6.53
2022-10-19T19:46:58.542Z,6.50
2022-10-19T19:49:27.232Z,6.48
2022-10-19T19:51:54.544Z,6.45
2022-10-19T19:54:21.791Z,6.42
2022-10-19T19:56:50.069Z,6.41
2022-10-19T19:59:16.911Z,6.37
2022-10-19T20:01:43.645Z,6.33
2022-10-19T20:04:10.929Z,6.35
2022-10-19T20:06:39.890Z,6.33
2022-10-19T20:09:07.804Z,6.29
2022-10-19T20:11:37.153Z,6.27
2022-10-19T20:14:06.483Z,6.26
2022-10-19T20:16:33.043Z,6.26
2022-10-19T20:19:01.706Z,6.24
2022-10-19T20:21:28.587Z,6.22
2022-10-19T20:23:56.495Z,6.18
2022-10-19T20:26:24.886Z,6.15
2022-10-19T20:28:52.183Z,6.18
2022-10-19T20:31:19.412Z,6.17
2022-10-19T20:33:46.622Z,6.16
2022-10-19T20:36:14.785Z,6.19
2022-10-19T20:38:46.591Z,6.20
2022-10-19T20:41:14.462Z,6.20
2022-10-19T20:43:40.970Z,6.19
2022-10-19T20:46:11.222Z,6.20
2022-10-19T20:48:38.024Z,6.22
2022-10-19T20:51:11.966Z,6.24
2022-10-19T20:53:38.954Z,6.24
2022-10-19T20:56:07.059Z,6.24
2022-10-19T20:58:34.958Z,6.22
2022-10-19T21:01:06.312Z,6.18
2022-10-19T21:03:32.812Z,6.14
2022-10-19T21:06:01.921Z,6.09
2022-10-19T21:08:28.774Z,6.08
2022-10-19T21:10:55.341Z,6.02
2022-10-19T21:13:21.852Z,5.99
2022-10-19T21:15:49.743Z,6.00
2022-10-19T21:18:16.287Z,5.93
2022-10-19T21:20:42.870Z,5.90
2022-10-19T21:23:09.375Z,5.90
2022-10-19T21:25:36.072Z,5.89
2022-10-19T21:28:02.569Z,5.85
2022-10-19T21:30:29.157Z,5.80
2022-10-19T21:32:57.114Z,5.74
2022-10-19T21:35:23.723Z,5.70
2022-10-19T21:37:50.256Z,5.67
2022-10-19T21:40:17.022Z,5.65
2022-10-19T21:42:43.512Z,5.61
2022-10-19T21:45:29.292Z,5.63
2022-10-19T21:47:57.972Z,5.61
2022-10-19T21:50:24.510Z,5.61
2022-10-19T21:52:50.999Z,5.62
2022-10-19T21:55:17.522Z,5.63
2022-10-19T21:57:45.276Z,5.64
2022-10-19T22:00:12.928Z,5.65
2022-10-19T22:02:39.592Z,5.60
2022-10-19T22:05:08.384Z,5.58
2022-10-19T22:07:35.209Z,5.58
2022-10-19T22:10:01.852Z,5.56
2022-10-19T22:12:28.397Z,5.56
2022-10-19T22:14:54.907Z,5.56
2022-10-19T22:17:21.444Z,5.52
2022-10-19T22:19:49.469Z,5.51
2022-10-19T22:22:17.363Z,5.47
2022-10-19T22:24:44.098Z,5.43
2022-10-19T22:27:10.592Z,5.37
2022-10-19T22:29:37.214Z,5.32
2022-10-19T22:32:03.894Z,5.31
2022-10-19T22:34:30.408Z,5.29
2022-10-19T22:36:56.941Z,5.27
2022-10-19T22:39:27.743Z,5.23
2022-10-19T22:41:54.628Z,5.12
2022-10-19T22:44:21.300Z,5.06
2022-10-19T22:46:47.822Z,4.99
2022-10-19T22:49:14.440Z,4.92
2022-10-19T22:51:41.073Z,4.84
2022-10-19T22:54:07.583Z,4.76
2022-10-19T22:56:35.933Z,4.69
2022-10-19T22:59:04.920Z,4.62
2022-10-19T23:01:31.700Z,4.52
2022-10-19T23:03:58.827Z,4.44
2022-10-19T23:06:25.455Z,4.39
2022-10-19T23:08:52.582Z,4.34
2022-10-19T23:11:19.890Z,4.29
2022-10-19T23:13:47.883Z,4.22
2022-10-19T23:16:14.438Z,4.15
2022-10-19T23:18:41.514Z,4.05
2022-10-19T23:21:10.914Z,4.00
2022-10-19T23:23:37.527Z,3.96
2022-10-19T23:26:06.590Z,3.91
2022-10-19T23:28:34.510Z,3.86
2022-10-19T23:31:06.354Z,3.85
2022-10-19T23:33:33.656Z,3.83
2022-10-19T23:36:05.518Z,3.83
2022-10-19T23:38:32.072Z,3.84
2022-10-19T23:40:58.631Z,3.82
2022-10-19T23:43:25.473Z,3.80
2022-10-19T23:45:52.192Z,3.76
2022-10-19T23:48:20.286Z,3.73
2022-10-19T23:50:46.861Z,3.69
2022-10-19T23:53:13.388Z,3.68
2022-10-19T23:55:40.001Z,3.68
2022-10-19T23:58:06.560Z,3.68
